الصفحة الرئيسية
METAR-TAF:

METAR-TAF

مطار :

نوفوسيبيرسك, روسيا

مطار نوفوسيبيرسك

دائرة عرض: 55-01N, خط طول: 082-38E, ارتفاع: 111 متر

مراقبة الطقس الحالي

تاريخ ووقت الإصدار 33 دقيقة قبل الساعة 06:30UTC
ريح 6 عقدة من الشمال/الشمال الشرقي
درجة الحرارة -15°درجة مئوية
الرطوبة 85%
ضغط 1036 hPa
الرؤية 10 كم أو أكثر
ملبد بالغيوم على ارتفاع 4300 قدم
ثلوج خفيفة

METAR: UNNT 190630Z 02003MPS 9999 -SN OVC043 M15/M17 Q1036 R25/490150 R16/490240 NOSIG RMK QFE767/1023

زمن: 14:03 (07:03 UTC)

توقعات

تاريخ ووقت الإصدار 2ساعات و 3 دقيقة قبل الساعة 05:00UTC
التوقعات صالحة من19 الساعة 06 UTC إلى 20 الساعة 06 UTC
ريح 6 عقدة من الشمال/الشمال الشرقي
الرؤية 10 كم أو أكثر
غيوم مفككة على ارتفاع 3000 قدم
مؤقت
من 19 الساعة 06 UTC إلى 19 الساعة 09 UTC
غيوم مفككة على ارتفاع 1100 قدم
ثلوج خفيفة
مؤقت
من 19 الساعة 12 UTC إلى 19 الساعة 21 UTC
الرؤية: 3100 متر
ثلوج خفيفة, دخان
مؤقت
من 19 الساعة 21 UTC إلى 20 الساعة 03 UTC
الرؤية: 1500 متر
دخان, غشاء

TAF: UNNT 190500Z 1906/2006 03003MPS 9999 BKN030 TEMPO 1906/1909 -SN BKN011 TEMPO 1912/1921 3100 -SN FU TEMPO 1921/2003 1500 FU BR

أرصاد الطقس والتوقعات من أكثر من 4000 مطار (تقارير الطقس للمطار METAR والتنبؤ بالطقس بالمطارTAF).

المحطات المتاحة هي النقط الصفراء والحمراء على الخريطة.

حرك المؤشر فوق النقطة لمعرفة اسم المحطة.

ثم انقر لمعرفة أرصاد وتوقعات الطقس.

لتغيير الخارطة: اضغط على الأزرار الخضراء مع رمز الصليب الأسود للتكبير. على الزر الأخضر مع شرطة للتصغير، أو على الأسهم الخضراء للخرائط المجاورة.


METAR-TAF: